Time;durP1;ratioP1;P1;durP2;ratioP2;P2;SDS_P1;SDS_P2;PMS_P1;PMS_P2;Temp;Humidity;BMP_temperature;BMP_pressure;BME280_temperature;BME280_humidity;BME280_pressure;Samples;Min_cycle;Max_cycle;Signal;HPM_P1;HPM_P2
2022/02/21 00:01:57;;;;;;;7.92;4.10;;;18.00;92.40;;;;;;1763729;79;21239;-84
2022/02/21 00:04:28;;;;;;;11.33;7.08;;;18.00;92.90;;;;;;1775450;79;21064;-87
2022/02/21 00:06:58;;;;;;;13.18;7.90;;;18.00;92.60;;;;;;1777585;79;21177;-87
2022/02/21 00:09:29;;;;;;;5.17;2.70;;;18.00;92.80;;;;;;1788351;79;21730;-74
2022/02/21 00:12:00;;;;;;;5.50;3.12;;;18.00;92.30;;;;;;1778799;80;21165;-74
2022/02/21 00:14:30;;;;;;;4.08;2.25;;;18.00;92.50;;;;;;1771977;79;21282;-73
2022/02/21 00:17:01;;;;;;;4.58;2.87;;;18.00;92.20;;;;;;1800167;78;21171;-73
2022/02/21 00:19:33;;;;;;;5.85;2.75;;;18.00;92.20;;;;;;1788831;79;21110;-73
2022/02/21 00:22:04;;;;;;;3.85;2.12;;;18.00;92.30;;;;;;1801913;78;22161;-73
2022/02/21 00:24:35;;;;;;;4.15;2.25;;;18.00;92.10;;;;;;1774681;79;21267;-73
2022/02/21 00:27:06;;;;;;;3.25;1.75;;;18.00;92.10;;;;;;1787232;79;21690;-73
2022/02/21 00:29:36;;;;;;;3.42;1.62;;;18.00;92.20;;;;;;1749893;80;21196;-74
2022/02/21 00:32:08;;;;;;;4.87;2.27;;;18.00;92.20;;;;;;1767620;79;21177;-74
2022/02/21 00:34:39;;;;;;;4.55;2.50;;;18.00;92.20;;;;;;1776715;79;21697;-73
2022/02/21 00:37:10;;;;;;;5.75;2.50;;;18.00;92.20;;;;;;1855198;76;21488;-74
2022/02/21 00:39:41;;;;;;;4.85;2.98;;;18.00;92.50;;;;;;1799992;78;21587;-73
2022/02/21 00:42:12;;;;;;;7.05;2.83;;;17.90;92.40;;;;;;1800544;78;21665;-74
2022/02/21 00:44:42;;;;;;;5.70;3.10;;;18.00;92.60;;;;;;1794144;78;21501;-73
2022/02/21 00:47:14;;;;;;;9.28;5.08;;;17.90;92.70;;;;;;1812410;78;21595;-73
2022/02/21 00:49:45;;;;;;;7.42;3.58;;;18.00;92.70;;;;;;1796980;77;21221;-73
2022/02/21 00:52:15;;;;;;;4.55;2.45;;;18.00;92.80;;;;;;1796971;79;21645;-73
2022/02/21 00:54:46;;;;;;;4.90;2.12;;;18.00;92.80;;;;;;1787590;79;21209;-73
2022/02/21 00:57:17;;;;;;;8.78;3.10;;;18.00;92.70;;;;;;1791725;79;21165;-73
2022/02/21 00:59:48;;;;;;;4.30;2.47;;;18.00;92.70;;;;;;1778206;80;21201;-73
2022/02/21 01:02:19;;;;;;;6.40;2.10;;;18.00;92.70;;;;;;1792636;79;21667;-73
2022/02/21 01:04:50;;;;;;;4.78;2.77;;;18.00;92.80;;;;;;1780392;78;21136;-73
2022/02/21 01:07:21;;;;;;;4.75;2.60;;;18.00;93.00;;;;;;1774240;79;21134;-73
2022/02/21 01:09:52;;;;;;;4.20;2.40;;;18.00;93.10;;;;;;1773428;79;21665;-73
2022/02/21 01:12:23;;;;;;;4.42;2.67;;;18.10;93.10;;;;;;1768531;79;21253;-73
2022/02/21 01:14:53;;;;;;;6.58;2.12;;;18.10;92.90;;;;;;1805154;79;21177;-73
2022/02/21 01:17:26;;;;;;;5.75;2.10;;;18.10;92.90;;;;;;1833162;76;21192;-73
2022/02/21 01:19:58;;;;;;;4.35;2.20;;;18.20;92.90;;;;;;1841139;76;21105;-73
2022/02/21 01:22:29;;;;;;;5.10;1.90;;;18.20;92.40;;;;;;1846331;76;21198;-72
2022/02/21 01:24:59;;;;;;;4.45;2.10;;;18.20;92.40;;;;;;1853726;76;21175;-73
2022/02/21 01:27:30;;;;;;;5.22;1.85;;;18.10;92.00;;;;;;1833731;76;21143;-73
2022/02/21 01:30:02;;;;;;;2.17;1.35;;;18.10;91.90;;;;;;1843137;76;21213;-74
2022/02/21 01:32:32;;;;;;;2.83;1.30;;;18.10;92.00;;;;;;1826362;76;21205;-74
2022/02/21 01:35:04;;;;;;;5.90;2.85;;;18.00;92.00;;;;;;1842985;76;21285;-73
2022/02/21 01:37:35;;;;;;;6.10;2.85;;;18.00;91.90;;;;;;1833572;78;21107;-73
2022/02/21 01:40:07;;;;;;;3.75;2.17;;;18.00;92.10;;;;;;1837690;76;21209;-73
2022/02/21 01:42:39;;;;;;;54.35;5.62;;;18.00;92.10;;;;;;1832733;77;21687;-72
2022/02/21 01:45:10;;;;;;;2.98;1.65;;;18.10;92.20;;;;;;1842817;76;21229;-71
2022/02/21 01:47:41;;;;;;;3.00;1.50;;;18.00;92.10;;;;;;1836275;76;21136;-71
2022/02/21 01:50:12;;;;;;;2.45;1.47;;;18.00;92.20;;;;;;1838001;76;21110;-72
2022/02/21 01:52:42;;;;;;;4.45;1.40;;;18.00;92.20;;;;;;1846404;76;21170;-71
2022/02/21 01:55:13;;;;;;;4.15;1.50;;;18.00;92.10;;;;;;1846572;76;21687;-71
2022/02/21 01:57:48;;;;;;;7.58;1.77;;;18.10;92.20;;;;;;1845609;76;21139;-71
2022/02/21 02:00:18;;;;;;;4.85;1.80;;;18.10;92.40;;;;;;1841793;76;21199;-70
2022/02/21 02:02:49;;;;;;;2.83;1.80;;;18.10;92.50;;;;;;1789756;78;21640;-72
2022/02/21 02:05:23;;;;;;;3.10;1.60;;;18.10;92.40;;;;;;1849697;76;21143;-72
2022/02/21 02:07:56;;;;;;;2.67;1.70;;;18.10;92.30;;;;;;1847775;76;21172;-71
2022/02/21 02:10:28;;;;;;;6.42;2.00;;;18.10;92.80;;;;;;1841931;76;21249;-72
2022/02/21 02:12:58;;;;;;;2.80;1.80;;;18.20;92.70;;;;;;1847418;76;22040;-72
2022/02/21 02:15:29;;;;;;;3.92;1.85;;;18.20;92.50;;;;;;1847236;76;21193;-72
2022/02/21 02:18:00;;;;;;;4.70;1.92;;;18.20;92.60;;;;;;1843493;76;21175;-70
2022/02/21 02:20:31;;;;;;;3.75;1.98;;;18.30;92.70;;;;;;1848668;77;21244;-71
2022/02/21 02:23:05;;;;;;;3.30;1.72;;;18.40;92.70;;;;;;1849034;76;21143;-71
2022/02/21 02:25:34;;;;;;;4.47;2.00;;;18.40;92.60;;;;;;1853213;76;21665;-71
2022/02/21 02:28:05;;;;;;;3.62;1.98;;;18.40;92.50;;;;;;1846916;76;21163;-70
2022/02/21 02:30:36;;;;;;;3.98;2.00;;;18.40;92.10;;;;;;1847497;76;21206;-71
2022/02/21 02:33:07;;;;;;;5.15;2.27;;;18.40;92.20;;;;;;1789098;78;21204;-73
2022/02/21 02:35:37;;;;;;;4.60;2.30;;;18.50;92.10;;;;;;1844423;76;21116;-72
2022/02/21 02:38:08;;;;;;;4.80;1.90;;;18.40;92.20;;;;;;1846880;76;21171;-72
2022/02/21 02:40:39;;;;;;;7.33;1.95;;;18.50;92.40;;;;;;1846542;76;21159;-72
2022/02/21 02:43:12;;;;;;;3.62;2.27;;;18.50;92.20;;;;;;1853951;76;21200;-72
2022/02/21 02:45:44;;;;;;;3.40;2.22;;;18.50;92.10;;;;;;1854277;76;21158;-71
2022/02/21 02:48:15;;;;;;;3.37;1.85;;;18.50;92.30;;;;;;1846786;76;21191;-73
2022/02/21 02:50:47;;;;;;;3.80;2.20;;;18.60;92.20;;;;;;1843166;76;21634;-72
2022/02/21 02:53:23;;;;;;;5.92;2.70;;;18.60;92.10;;;;;;1835370;77;21230;-73
2022/02/21 02:55:54;;;;;;;4.70;2.30;;;18.60;91.90;;;;;;1845370;76;21630;-72
2022/02/21 02:58:25;;;;;;;5.70;2.25;;;18.60;92.20;;;;;;1843380;76;21265;-72
2022/02/21 03:00:56;;;;;;;5.33;2.12;;;18.60;92.10;;;;;;1842117;76;21124;-72
2022/02/21 03:03:26;;;;;;;4.42;2.35;;;18.60;92.00;;;;;;1785793;78;21235;-73
2022/02/21 03:06:00;;;;;;;5.65;1.77;;;18.60;92.00;;;;;;1775622;79;21178;-73
2022/02/21 03:08:31;;;;;;;4.60;2.17;;;18.70;91.90;;;;;;1799740;79;21230;-73
2022/02/21 03:11:02;;;;;;;6.35;2.40;;;18.70;92.30;;;;;;1795004;79;21677;-71
2022/02/21 03:13:33;;;;;;;4.40;2.02;;;18.80;92.30;;;;;;1850832;76;21146;-71
2022/02/21 03:16:04;;;;;;;5.70;2.20;;;18.80;92.40;;;;;;1834489;76;21667;-73
2022/02/21 03:18:35;;;;;;;6.33;2.30;;;18.80;91.70;;;;;;1848313;76;21282;-72
2022/02/21 03:21:06;;;;;;;5.22;2.00;;;18.90;92.10;;;;;;1835693;76;21124;-72
2022/02/21 03:23:36;;;;;;;5.00;2.25;;;18.90;91.90;;;;;;1843456;76;21671;-72
2022/02/21 03:26:07;;;;;;;3.27;1.72;;;18.90;91.80;;;;;;1833830;76;21827;-73
2022/02/21 03:28:37;;;;;;;4.08;1.98;;;18.90;91.70;;;;;;1846394;76;21194;-71
2022/02/21 03:31:08;;;;;;;6.28;2.25;;;19.00;91.80;;;;;;1794560;78;21260;-72
2022/02/21 03:33:39;;;;;;;4.25;2.08;;;19.00;91.50;;;;;;1789598;78;21167;-73
2022/02/21 03:36:10;;;;;;;5.17;2.40;;;19.00;91.40;;;;;;1794593;78;21173;-71
2022/02/21 03:38:43;;;;;;;4.58;2.60;;;19.10;91.20;;;;;;1797336;78;21220;-72
2022/02/21 03:41:14;;;;;;;5.10;2.17;;;19.20;91.50;;;;;;1789812;78;21277;-72
2022/02/21 03:43:44;;;;;;;5.25;2.08;;;19.20;91.20;;;;;;1797835;78;21155;-71
2022/02/21 03:46:15;;;;;;;7.42;2.42;;;19.30;91.20;;;;;;1803767;78;21712;-72
2022/02/21 03:48:46;;;;;;;5.55;2.47;;;19.30;91.00;;;;;;1804035;78;21162;-71
2022/02/21 03:51:17;;;;;;;5.60;2.08;;;19.40;91.20;;;;;;1802952;77;21723;-72
2022/02/21 03:53:48;;;;;;;5.20;2.62;;;19.50;91.10;;;;;;1843476;76;21705;-70
2022/02/21 03:56:18;;;;;;;3.90;2.35;;;19.50;90.90;;;;;;1847486;76;21160;-71
2022/02/21 03:58:49;;;;;;;4.28;2.10;;;19.60;91.00;;;;;;1848640;76;21269;-69
2022/02/21 04:01:20;;;;;;;5.25;2.47;;;19.70;90.90;;;;;;1811159;79;21192;-68
2022/02/21 04:03:51;;;;;;;5.17;2.12;;;19.80;90.80;;;;;;1846203;76;21144;-71
2022/02/21 04:06:22;;;;;;;8.40;2.60;;;19.80;90.40;;;;;;1847446;76;21328;-71
2022/02/21 04:08:52;;;;;;;7.22;2.15;;;19.90;90.30;;;;;;1822081;77;21550;-71
2022/02/21 04:11:23;;;;;;;4.40;2.40;;;20.00;90.30;;;;;;1837823;76;21143;-70
2022/02/21 04:13:54;;;;;;;4.83;2.15;;;20.00;90.00;;;;;;1846749;76;21553;-69
2022/02/21 04:16:31;;;;;;;5.00;2.47;;;20.00;90.40;;;;;;1853025;76;21057;-69
2022/02/21 04:18:57;;;;;;;5.40;2.50;;;20.00;90.10;;;;;;1851364;76;21142;-69
2022/02/21 04:21:27;;;;;;;4.40;2.60;;;20.00;90.30;;;;;;1819254;77;21671;-69
2022/02/21 04:23:59;;;;;;;5.03;2.70;;;20.10;90.40;;;;;;1850543;76;21098;-71
2022/02/21 04:26:29;;;;;;;5.12;2.50;;;20.00;90.30;;;;;;1855740;76;21261;-70
2022/02/21 04:29:01;;;;;;;5.00;2.95;;;20.00;90.30;;;;;;1849201;76;21195;-71
2022/02/21 04:31:32;;;;;;;4.95;2.85;;;20.00;90.40;;;;;;1852008;76;21155;-71
2022/02/21 04:34:02;;;;;;;5.75;2.40;;;20.00;90.20;;;;;;1856543;76;21285;-71
2022/02/21 04:36:34;;;;;;;5.20;2.42;;;20.00;91.40;;;;;;1807051;78;21748;-70
2022/02/21 04:39:06;;;;;;;5.92;3.00;;;19.90;90.90;;;;;;1852407;76;21232;-71
2022/02/21 04:41:37;;;;;;;6.15;2.67;;;19.90;90.70;;;;;;1812070;77;21743;-71
2022/02/21 04:44:08;;;;;;;4.42;2.50;;;19.90;90.70;;;;;;1853549;76;21613;-71
2022/02/21 04:46:39;;;;;;;9.03;3.87;;;19.90;90.50;;;;;;1848116;76;21261;-71
2022/02/21 04:49:09;;;;;;;4.47;2.55;;;19.90;91.10;;;;;;1813457;77;21288;-71
2022/02/21 04:51:40;;;;;;;5.90;2.77;;;19.90;90.90;;;;;;1817775;77;21672;-71
2022/02/21 04:54:11;;;;;;;6.12;3.42;;;19.90;90.80;;;;;;1840550;76;21273;-71
2022/02/21 04:56:42;;;;;;;5.83;3.05;;;19.90;90.60;;;;;;1858519;76;21651;-72
2022/02/21 04:59:12;;;;;;;4.58;2.80;;;19.90;90.90;;;;;;1846966;76;21590;-72
2022/02/21 05:01:43;;;;;;;6.03;3.00;;;19.90;91.30;;;;;;1859441;76;21218;-71
2022/02/21 05:04:14;;;;;;;5.10;2.83;;;19.90;91.40;;;;;;1840391;77;21579;-71
2022/02/21 05:06:44;;;;;;;3.75;2.77;;;20.00;91.40;;;;;;1844580;76;21658;-71
2022/02/21 05:09:15;;;;;;;6.22;2.70;;;20.10;90.80;;;;;;1827097;77;21663;-71
2022/02/21 05:11:46;;;;;;;5.60;2.62;;;20.10;90.80;;;;;;1847590;76;21132;-72
2022/02/21 05:14:18;;;;;;;5.78;2.92;;;20.20;90.60;;;;;;1840442;76;21698;-71
2022/02/21 05:16:48;;;;;;;6.97;2.92;;;20.20;90.70;;;;;;1841119;77;21209;-71
2022/02/21 05:19:20;;;;;;;5.08;3.25;;;20.20;90.70;;;;;;1836177;77;21160;-71
2022/02/21 05:21:50;;;;;;;8.98;2.95;;;20.30;90.90;;;;;;1844156;76;21200;-71
2022/02/21 05:24:21;;;;;;;4.42;2.65;;;20.40;90.50;;;;;;1770415;80;21102;-71
2022/02/21 05:26:52;;;;;;;4.78;2.75;;;20.40;90.50;;;;;;1783083;78;21284;-71
2022/02/21 05:29:23;;;;;;;5.10;2.35;;;20.40;91.20;;;;;;1790637;79;21207;-71
2022/02/21 05:31:53;;;;;;;5.05;2.33;;;20.50;91.20;;;;;;1767706;79;21142;-71
2022/02/21 05:34:24;;;;;;;7.10;2.75;;;20.60;90.80;;;;;;1781792;78;21072;-72
2022/02/21 05:36:54;;;;;;;4.83;2.65;;;20.80;91.90;;;;;;1780928;78;21158;-71
2022/02/21 05:39:26;;;;;;;6.08;3.00;;;20.80;90.00;;;;;;1781161;79;21985;-71
2022/02/21 05:41:57;;;;;;;4.62;2.42;;;20.90;90.30;;;;;;1786797;79;21177;-71
2022/02/21 05:44:29;;;;;;;5.55;2.80;;;20.90;90.30;;;;;;1791463;78;21606;-70
2022/02/21 05:47:00;;;;;;;5.85;3.00;;;21.00;90.30;;;;;;1784706;80;21240;-71
2022/02/21 05:49:32;;;;;;;4.45;2.85;;;21.00;88.80;;;;;;1794902;78;21177;-71
2022/02/21 05:52:04;;;;;;;4.40;2.85;;;21.10;90.40;;;;;;1790537;78;21103;-70
2022/02/21 05:54:35;;;;;;;5.30;2.95;;;21.20;91.30;;;;;;1788474;79;21141;-71
2022/02/21 05:57:06;;;;;;;7.05;3.15;;;21.30;89.40;;;;;;1779501;78;21677;-73
2022/02/21 05:59:36;;;;;;;5.72;3.05;;;21.40;89.50;;;;;;1773336;79;21167;-71
2022/02/21 06:02:07;;;;;;;5.67;2.85;;;21.50;87.70;;;;;;1791897;80;21241;-70
2022/02/21 06:04:38;;;;;;;8.15;3.10;;;21.60;89.10;;;;;;1786601;80;21220;-70
2022/02/21 06:07:09;;;;;;;4.62;2.77;;;21.60;89.00;;;;;;1781530;80;21610;-73
2022/02/21 06:09:39;;;;;;;4.80;3.05;;;21.60;87.50;;;;;;1793870;79;21256;-72
2022/02/21 06:12:12;;;;;;;5.28;3.02;;;21.50;87.20;;;;;;1818844;78;21143;-73
2022/02/21 06:14:43;;;;;;;4.80;2.90;;;21.50;86.50;;;;;;1805466;78;21610;-73
2022/02/21 06:17:15;;;;;;;4.50;2.85;;;21.50;87.40;;;;;;1818995;78;21186;-73
2022/02/21 06:19:46;;;;;;;6.37;3.25;;;21.60;87.00;;;;;;1836239;76;21561;-73
2022/02/21 06:22:18;;;;;;;5.83;2.95;;;21.70;86.80;;;;;;1780943;79;21551;-72
2022/02/21 06:24:49;;;;;;;4.50;3.05;;;21.70;86.50;;;;;;1774760;81;21201;-72
2022/02/21 06:27:20;;;;;;;4.25;2.87;;;21.70;86.00;;;;;;1771612;79;21109;-72
2022/02/21 06:29:51;;;;;;;5.87;3.20;;;21.80;86.20;;;;;;1789431;79;21186;-72
2022/02/21 06:32:22;;;;;;;5.17;3.27;;;21.80;85.60;;;;;;1790808;78;21163;-72
2022/02/21 06:34:53;;;;;;;6.03;3.50;;;21.90;85.10;;;;;;1790901;80;21605;-71
2022/02/21 06:37:23;;;;;;;6.37;3.33;;;22.00;84.80;;;;;;1792380;79;21225;-71
2022/02/21 06:39:54;;;;;;;5.05;2.83;;;22.00;85.20;;;;;;1780413;79;21249;-71
2022/02/21 06:42:25;;;;;;;7.05;3.02;;;22.10;85.60;;;;;;1769712;80;21166;-72
2022/02/21 06:44:56;;;;;;;4.87;3.10;;;22.10;84.90;;;;;;1790115;79;21656;-72
2022/02/21 06:47:27;;;;;;;5.00;2.60;;;22.20;84.60;;;;;;1801097;78;21700;-72
2022/02/21 06:49:58;;;;;;;6.28;3.05;;;22.30;84.10;;;;;;1793584;78;21143;-71
2022/02/21 06:52:29;;;;;;;6.45;3.15;;;22.30;84.60;;;;;;1748413;80;21208;-71
2022/02/21 06:55:01;;;;;;;4.47;2.85;;;22.30;83.90;;;;;;1840517;75;21170;-72
2022/02/21 06:57:32;;;;;;;5.00;3.67;;;22.40;84.30;;;;;;1814861;77;21134;-73
2022/02/21 07:00:04;;;;;;;6.78;3.10;;;22.40;84.90;;;;;;1857242;75;21182;-72
2022/02/21 07:02:35;;;;;;;5.87;3.22;;;22.40;84.10;;;;;;1850058;75;21142;-70
2022/02/21 07:05:07;;;;;;;4.12;2.83;;;22.50;84.10;;;;;;1834806;77;21158;-71
2022/02/21 07:07:38;;;;;;;6.37;3.30;;;22.60;83.80;;;;;;1821984;77;21184;-70
2022/02/21 07:10:10;;;;;;;5.62;3.70;;;22.60;83.20;;;;;;1786630;79;21178;-70
2022/02/21 07:12:40;;;;;;;4.78;2.80;;;22.60;83.50;;;;;;1824159;77;21155;-71
2022/02/21 07:15:11;;;;;;;4.85;3.30;;;22.60;84.50;;;;;;1797533;78;21648;-71
2022/02/21 07:17:44;;;;;;;4.40;2.77;;;22.60;84.20;;;;;;1860410;75;21740;-71
2022/02/21 07:20:15;;;;;;;5.60;3.02;;;22.70;83.30;;;;;;1823102;77;21186;-71
2022/02/21 07:22:47;;;;;;;4.25;2.80;;;22.80;83.30;;;;;;1857774;75;21142;-70
2022/02/21 07:25:19;;;;;;;7.75;2.98;;;22.80;83.40;;;;;;1819962;78;21118;-72
2022/02/21 07:27:52;;;;;;;8.18;3.87;;;22.90;83.70;;;;;;1857604;75;21662;-69
2022/02/21 07:30:26;;;;;;;10.38;6.60;;;22.90;82.60;;;;;;1816821;77;21177;-70
2022/02/21 07:32:57;;;;;;;5.03;3.50;;;23.00;82.90;;;;;;1874098;75;21765;-71
2022/02/21 07:35:28;;;;;;;8.60;3.20;;;23.00;82.50;;;;;;1828596;77;21188;-70
2022/02/21 07:37:59;;;;;;;5.72;3.20;;;23.00;82.80;;;;;;1856782;77;21652;-71
2022/02/21 07:40:30;;;;;;;7.25;3.47;;;23.00;83.50;;;;;;1823921;77;21244;-70
2022/02/21 07:43:01;;;;;;;5.00;3.27;;;23.00;82.90;;;;;;1885434;75;21143;-71
2022/02/21 07:45:31;;;;;;;5.00;3.37;;;23.10;82.30;;;;;;1836986;77;21070;-71
2022/02/21 07:48:02;;;;;;;6.47;2.95;;;23.10;82.90;;;;;;1787492;78;21071;-71
2022/02/21 07:50:35;;;;;;;4.70;3.17;;;23.00;82.50;;;;;;1861747;75;21186;-71
2022/02/21 07:53:07;;;;;;;4.55;2.92;;;23.00;82.80;;;;;;1816721;77;21585;-71
2022/02/21 07:55:37;;;;;;;8.18;3.25;;;23.00;83.60;;;;;;1853285;75;21657;-71
2022/02/21 07:58:08;;;;;;;4.53;3.33;;;23.00;84.10;;;;;;1826030;77;21109;-69
2022/02/21 08:00:39;;;;;;;5.20;3.47;;;23.00;84.30;;;;;;1865557;75;21150;-71
2022/02/21 08:03:10;;;;;;;4.70;3.20;;;23.00;84.30;;;;;;1817635;77;21167;-70
2022/02/21 08:05:41;;;;;;;4.17;3.22;;;23.00;83.80;;;;;;1858002;76;21162;-69
2022/02/21 08:08:13;;;;;;;6.80;3.70;;;23.10;83.40;;;;;;1829532;77;21087;-70
2022/02/21 08:10:44;;;;;;;6.37;3.75;;;23.10;83.70;;;;;;1791321;80;21180;-70
2022/02/21 08:13:15;;;;;;;5.90;3.70;;;23.10;83.70;;;;;;1859687;75;21720;-70
2022/02/21 08:15:46;;;;;;;7.72;3.40;;;23.00;83.60;;;;;;1818200;77;21126;-70
2022/02/21 08:18:16;;;;;;;5.08;3.00;;;23.00;84.40;;;;;;1869696;75;21578;-71
2022/02/21 08:20:47;;;;;;;6.30;3.65;;;23.00;84.40;;;;;;1859680;75;21859;-70
2022/02/21 08:23:18;;;;;;;14.65;9.00;;;23.00;84.80;;;;;;1859797;75;21135;-70
2022/02/21 08:25:49;;;;;;;9.30;5.92;;;22.90;86.40;;;;;;1855638;75;21139;-70
2022/02/21 08:28:21;;;;;;;5.05;3.12;;;23.00;85.20;;;;;;1863549;75;21236;-71
2022/02/21 08:30:52;;;;;;;7.17;4.70;;;23.00;84.80;;;;;;1819043;78;21650;-71
2022/02/21 08:33:22;;;;;;;5.20;3.50;;;23.00;85.10;;;;;;1865779;75;21547;-70
2022/02/21 08:35:53;;;;;;;5.50;3.35;;;23.00;84.80;;;;;;1822109;77;21148;-72
2022/02/21 08:38:24;;;;;;;5.00;3.00;;;23.00;85.10;;;;;;1867545;75;21099;-73
2022/02/21 08:40:54;;;;;;;4.92;3.10;;;23.00;85.10;;;;;;1817340;77;21201;-71
2022/02/21 08:43:28;;;;;;;5.20;3.45;;;23.00;85.30;;;;;;1854378;76;21138;-70
2022/02/21 08:45:59;;;;;;;5.15;3.33;;;23.00;84.60;;;;;;1824086;77;21094;-73
2022/02/21 08:48:31;;;;;;;5.10;3.37;;;23.00;84.80;;;;;;1810996;78;21198;-71
2022/02/21 08:51:03;;;;;;;7.47;3.42;;;23.00;85.30;;;;;;1865557;75;21160;-72
2022/02/21 08:53:35;;;;;;;5.22;3.35;;;23.00;86.40;;;;;;1863635;75;21232;-71
2022/02/21 08:56:06;;;;;;;7.12;4.00;;;22.90;85.70;;;;;;1861480;77;21154;-71
2022/02/21 08:58:37;;;;;;;6.08;3.40;;;22.90;85.80;;;;;;1853078;77;21623;-71
2022/02/21 09:01:07;;;;;;;5.78;3.60;;;22.90;85.80;;;;;;1866935;75;21127;-70
2022/02/21 09:03:38;;;;;;;5.87;3.45;;;22.90;86.10;;;;;;1856817;75;21139;-70
2022/02/21 09:06:11;;;;;;;6.40;3.65;;;22.90;86.00;;;;;;1820104;77;21149;-70
2022/02/21 09:08:41;;;;;;;5.67;3.65;;;22.90;85.70;;;;;;1814824;77;21168;-71
2022/02/21 09:11:12;;;;;;;4.65;3.52;;;22.90;86.00;;;;;;1821158;77;21680;-71
2022/02/21 09:13:43;;;;;;;5.83;3.27;;;22.90;85.70;;;;;;1861345;76;21078;-70
2022/02/21 09:16:14;;;;;;;5.40;4.22;;;22.90;85.90;;;;;;1835417;77;21579;-71
2022/02/21 09:18:45;;;;;;;6.30;3.95;;;22.90;85.70;;;;;;1820806;77;21753;-70
2022/02/21 09:21:15;;;;;;;7.42;4.17;;;22.90;85.80;;;;;;1791838;78;21123;-69
2022/02/21 09:23:46;;;;;;;5.47;3.98;;;22.80;86.00;;;;;;1864647;76;21151;-70
2022/02/21 09:26:17;;;;;;;7.50;4.35;;;22.80;85.90;;;;;;1837175;77;21610;-69
2022/02/21 09:28:48;;;;;;;4.40;3.40;;;22.80;86.20;;;;;;1865341;75;21225;-70
2022/02/21 09:31:19;;;;;;;5.53;3.37;;;22.80;86.60;;;;;;1825747;77;21754;-70
2022/02/21 09:33:50;;;;;;;6.37;3.52;;;22.80;86.90;;;;;;1859404;76;21126;-71
2022/02/21 09:36:21;;;;;;;4.95;3.27;;;22.80;86.40;;;;;;1828861;77;21687;-70
2022/02/21 09:38:52;;;;;;;5.75;3.58;;;22.80;86.60;;;;;;1858262;75;21127;-71
2022/02/21 09:41:23;;;;;;;5.45;3.50;;;22.80;86.60;;;;;;1796033;78;21581;-71
2022/02/21 09:43:53;;;;;;;4.35;2.87;;;22.80;86.50;;;;;;1819901;77;21144;-71
2022/02/21 09:46:26;;;;;;;4.60;3.45;;;22.80;86.60;;;;;;1872139;75;21130;-71
2022/02/21 09:48:59;;;;;;;5.35;2.87;;;22.80;86.70;;;;;;1816485;77;21602;-70
2022/02/21 09:51:30;;;;;;;6.65;3.20;;;22.80;86.40;;;;;;1864182;75;21233;-71
2022/02/21 09:54:03;;;;;;;5.03;2.52;;;22.80;86.70;;;;;;1828655;77;21210;-69
2022/02/21 09:56:35;;;;;;;5.17;2.70;;;22.80;86.40;;;;;;1841365;76;21164;-69
2022/02/21 09:59:06;;;;;;;4.97;3.00;;;22.80;86.30;;;;;;1830055;76;21137;-69
2022/02/21 10:01:38;;;;;;;4.58;2.80;;;22.70;86.20;;;;;;1829396;76;21130;-70
2022/02/21 10:04:12;;;;;;;6.05;2.87;;;22.80;86.60;;;;;;1833402;78;21081;-69
2022/02/21 10:06:42;;;;;;;4.53;2.80;;;22.70;86.70;;;;;;1846377;76;21123;-70
2022/02/21 10:09:14;;;;;;;4.85;2.92;;;22.80;86.90;;;;;;1807864;78;21134;-69
2022/02/21 10:11:47;;;;;;;6.80;3.42;;;22.80;86.80;;;;;;1781808;78;21618;-69
2022/02/21 10:14:20;;;;;;;5.20;3.10;;;22.80;86.90;;;;;;1801714;78;21177;-71
2022/02/21 10:16:54;;;;;;;7.03;3.40;;;22.80;86.90;;;;;;1778520;78;21099;-70
2022/02/21 10:19:27;;;;;;;5.17;3.02;;;22.90;86.80;;;;;;1797495;78;21131;-71
2022/02/21 10:22:01;;;;;;;8.35;3.62;;;22.80;86.90;;;;;;1797944;79;21119;-71
2022/02/21 10:24:35;;;;;;;5.15;3.50;;;22.80;86.50;;;;;;1746800;82;21239;-73
2022/02/21 10:27:09;;;;;;;5.87;3.65;;;22.90;86.60;;;;;;1797199;78;21220;-71
2022/02/21 10:29:42;;;;;;;7.47;4.30;;;22.80;86.20;;;;;;1776767;80;21654;-70
2022/02/21 10:32:12;;;;;;;4.85;3.45;;;22.80;86.10;;;;;;1773584;79;21703;-71
2022/02/21 10:34:45;;;;;;;8.90;3.70;;;22.80;86.10;;;;;;1798514;78;21147;-70
2022/02/21 10:37:18;;;;;;;6.05;4.03;;;22.80;86.50;;;;;;1794340;79;21197;-72
2022/02/21 10:39:49;;;;;;;5.67;3.90;;;22.80;86.40;;;;;;1772919;79;21166;-71
2022/02/21 10:42:25;;;;;;;7.72;3.65;;;22.70;86.40;;;;;;1783415;79;21292;-72
2022/02/21 10:44:57;;;;;;;7.92;4.15;;;22.70;86.70;;;;;;1780462;79;21597;-71
2022/02/21 10:47:28;;;;;;;6.58;3.87;;;22.70;87.20;;;;;;1771455;79;21149;-71
2022/02/21 10:50:00;;;;;;;5.80;3.85;;;22.70;87.30;;;;;;1780694;80;21640;-72
2022/02/21 10:52:38;;;;;;;7.22;4.60;;;22.70;87.60;;;;;;1790019;80;21701;-71
2022/02/21 10:55:09;;;;;;;9.95;4.47;;;22.70;87.80;;;;;;1786362;78;21620;-72
2022/02/21 10:57:43;;;;;;;8.73;3.87;;;22.70;87.90;;;;;;1786139;79;21635;-73
2022/02/21 11:00:17;;;;;;;9.98;4.90;;;22.70;88.20;;;;;;1778714;78;21185;-72
2022/02/21 11:02:47;;;;;;;7.72;4.33;;;22.70;88.20;;;;;;1775780;79;21212;-72
2022/02/21 11:05:19;;;;;;;11.05;4.40;;;22.70;88.40;;;;;;1791022;78;21079;-72
2022/02/21 11:07:53;;;;;;;8.05;5.30;;;22.70;88.50;;;;;;1787901;79;21279;-81
2022/02/21 11:10:29;;;;;;;9.75;4.50;;;22.70;88.40;;;;;;1852145;77;21096;-83
2022/02/21 11:12:57;;;;;;;7.10;4.00;;;22.70;88.10;;;;;;1836912;76;21128;-83
2022/02/21 11:15:29;;;;;;;8.55;4.92;;;22.70;88.40;;;;;;1862050;76;21139;-85
2022/02/21 11:18:03;;;;;;;7.45;4.78;;;22.70;88.40;;;;;;1836469;76;21162;-84
2022/02/21 11:20:34;;;;;;;6.95;4.50;;;22.70;88.40;;;;;;1836909;76;21187;-85
2022/02/21 11:23:08;;;;;;;6.78;5.03;;;22.60;88.20;;;;;;1842212;76;21158;-84
2022/02/21 11:25:41;;;;;;;8.35;5.10;;;22.60;88.50;;;;;;1802977;78;21147;-84
2022/02/21 11:28:19;;;;;;;6.10;4.62;;;22.60;88.40;;;;;;1778894;80;21102;-83
2022/02/21 11:30:51;;;;;;;7.62;5.08;;;22.60;88.70;;;;;;1780114;80;21227;-85
2022/02/21 11:33:28;;;;;;;10.35;5.75;;;22.60;88.40;;;;;;1777592;79;21244;-85
2022/02/21 11:36:01;;;;;;;8.10;5.30;;;22.60;88.60;;;;;;1743787;82;21157;-85
2022/02/21 11:38:33;;;;;;;9.70;5.62;;;22.60;88.90;;;;;;1758654;80;21190;-85
2022/02/21 11:41:06;;;;;;;8.58;5.33;;;22.60;88.70;;;;;;1768266;81;21095;-85
2022/02/21 11:43:39;;;;;;;7.53;5.37;;;22.60;88.80;;;;;;1775350;79;21084;-85
2022/02/21 11:46:13;;;;;;;10.85;5.83;;;22.50;89.00;;;;;;1778590;79;21240;-81
2022/02/21 11:48:48;;;;;;;14.13;9.08;;;22.50;89.10;;;;;;1788376;79;21102;-87
2022/02/21 11:51:21;;;;;;;18.25;10.25;;;22.50;89.20;;;;;;1834295;77;21117;-86
2022/02/21 11:53:52;;;;;;;18.65;10.60;;;22.50;89.30;;;;;;1827506;76;21227;-87
2022/02/21 11:56:25;;;;;;;17.00;10.55;;;22.50;89.40;;;;;;1846807;77;21202;-87
2022/02/21 11:58:56;;;;;;;15.63;10.48;;;22.50;89.50;;;;;;1838394;76;21233;-87
2022/02/21 12:01:28;;;;;;;13.05;7.42;;;22.50;89.40;;;;;;1825248;77;21124;-86
2022/02/21 12:04:01;;;;;;;11.10;6.83;;;22.50;89.50;;;;;;1839668;77;21627;-87
2022/02/21 12:06:32;;;;;;;9.28;6.03;;;22.50;90.30;;;;;;1818320;77;21234;-87
2022/02/21 12:09:06;;;;;;;10.38;7.03;;;22.50;89.70;;;;;;1834925;77;21144;-87
2022/02/21 12:11:36;;;;;;;11.40;5.85;;;22.50;89.80;;;;;;1849407;76;21226;-86
2022/02/21 12:14:10;;;;;;;9.33;5.87;;;22.50;89.90;;;;;;1846159;77;21057;-85
2022/02/21 12:16:43;;;;;;;8.93;5.70;;;22.50;90.00;;;;;;1826678;77;21279;-85
2022/02/21 12:19:16;;;;;;;12.43;6.25;;;22.50;90.00;;;;;;1841815;77;21587;-79
2022/02/21 12:21:49;;;;;;;8.63;5.83;;;22.50;90.00;;;;;;1829179;77;21548;-77
2022/02/21 12:24:20;;;;;;;11.33;6.15;;;22.50;90.00;;;;;;1836551;77;22448;-76
2022/02/21 12:26:55;;;;;;;24.82;7.67;;;22.50;90.10;;;;;;1845347;76;21080;-76
2022/02/21 12:29:27;;;;;;;11.12;6.65;;;22.50;90.10;;;;;;1842903;77;21602;-78
2022/02/21 12:31:59;;;;;;;14.00;7.42;;;22.50;90.10;;;;;;1843355;77;21563;-85
2022/02/21 12:34:32;;;;;;;10.18;6.00;;;22.50;90.10;;;;;;1848762;77;21198;-85
2022/02/21 12:37:05;;;;;;;14.10;7.47;;;22.50;90.20;;;;;;1858063;76;21096;-85
2022/02/21 12:39:37;;;;;;;11.33;6.58;;;22.50;90.20;;;;;;1878008;76;21865;-84
2022/02/21 12:42:09;;;;;;;13.85;6.70;;;22.50;90.20;;;;;;1878309;76;21144;-85
2022/02/21 12:44:40;;;;;;;11.33;6.87;;;22.50;90.30;;;;;;1862732;76;21104;-83
2022/02/21 12:47:11;;;;;;;14.25;6.97;;;22.50;90.40;;;;;;1839150;76;21183;-85
2022/02/21 12:49:46;;;;;;;11.53;7.10;;;22.50;90.50;;;;;;1825135;76;21092;-85
2022/02/21 12:52:18;;;;;;;12.00;6.80;;;22.50;90.60;;;;;;1822491;77;21206;-86
2022/02/21 12:54:51;;;;;;;11.85;7.70;;;22.50;90.70;;;;;;1843595;76;21180;-85
2022/02/21 12:57:24;;;;;;;16.90;8.45;;;22.50;90.80;;;;;;1833548;76;21100;-86
2022/02/21 12:59:58;;;;;;;;;;;22.50;90.80;;;;;;1870726;76;21531;-86
2022/02/21 13:02:31;;;;;;;10.58;7.37;;;22.50;90.80;;;;;;1856022;76;20243;-86
2022/02/21 13:05:04;;;;;;;12.33;7.22;;;22.50;90.60;;;;;;1758138;80;21162;-85
2022/02/21 13:07:35;;;;;;;10.65;6.40;;;22.50;90.30;;;;;;1845120;76;21085;-86